createdAt,value
2018-03-22T00:01:59.532Z,0
2018-03-22T00:06:59.048Z,0
2018-03-22T00:11:59.132Z,0
2018-03-22T00:16:59.159Z,0
2018-03-22T00:21:59.260Z,0
2018-03-22T00:26:59.222Z,0
2018-03-22T00:31:59.243Z,0
2018-03-22T00:36:59.299Z,0
2018-03-22T00:41:59.237Z,0
2018-03-22T00:46:59.282Z,0
2018-03-22T00:51:59.323Z,0
2018-03-22T00:56:59.400Z,0
2018-03-22T01:01:58.908Z,0
2018-03-22T01:06:59.262Z,0
2018-03-22T01:11:58.568Z,0
2018-03-22T01:16:58.490Z,0
2018-03-22T01:21:58.646Z,0
2018-03-22T01:26:58.637Z,0
2018-03-22T01:31:58.711Z,0
2018-03-22T01:36:58.649Z,0
2018-03-22T01:41:58.679Z,0
2018-03-22T01:46:58.617Z,0
2018-03-22T01:51:58.676Z,0
2018-03-22T01:56:58.696Z,0
2018-03-22T02:01:58.878Z,0
2018-03-22T02:06:59.128Z,0
2018-03-22T02:11:59.106Z,0
2018-03-22T02:16:58.983Z,0
2018-03-22T02:21:59.114Z,0
2018-03-22T02:26:59.279Z,0
2018-03-22T02:31:59.405Z,0
2018-03-22T02:36:59.378Z,0
2018-03-22T02:41:59.592Z,0
2018-03-22T02:46:59.510Z,0
2018-03-22T02:51:58.512Z,0
2018-03-22T02:56:59.484Z,0
2018-03-22T03:01:59.571Z,0
2018-03-22T03:06:58.724Z,0
2018-03-22T03:11:58.633Z,0
2018-03-22T03:16:59.585Z,0
2018-03-22T03:21:58.665Z,0
2018-03-22T03:26:59.549Z,0
2018-03-22T03:31:59.513Z,0
2018-03-22T03:36:59.426Z,0
2018-03-22T03:41:59.433Z,0
2018-03-22T03:46:59.360Z,0
2018-03-22T03:51:59.312Z,0
2018-03-22T03:56:59.228Z,0
2018-03-22T04:01:59.237Z,0
2018-03-22T04:06:59.543Z,0
2018-03-22T04:11:59.455Z,0
2018-03-22T04:16:59.466Z,0
2018-03-22T04:21:59.405Z,0
2018-03-22T04:26:59.355Z,0
2018-03-22T04:31:59.369Z,0
2018-03-22T04:36:59.392Z,0
2018-03-22T04:41:59.331Z,0
2018-03-22T04:46:59.288Z,0
2018-03-22T04:51:59.268Z,0
2018-03-22T04:56:59.300Z,0
2018-03-22T05:01:59.269Z,0
2018-03-22T05:06:58.950Z,0
2018-03-22T05:11:58.887Z,0
2018-03-22T05:16:58.920Z,0
2018-03-22T05:21:58.842Z,0
2018-03-22T05:26:58.784Z,0
2018-03-22T05:31:59.211Z,0
2018-03-22T05:36:58.843Z,0
2018-03-22T05:41:58.811Z,0
2018-03-22T05:46:58.738Z,0
2018-03-22T05:51:58.764Z,0
2018-03-22T05:56:58.827Z,5
2018-03-22T06:01:58.741Z,5
2018-03-22T06:06:59.614Z,1.7
2018-03-22T06:11:59.571Z,1.7
2018-03-22T06:16:59.638Z,7.8
2018-03-22T06:21:59.629Z,7.8
2018-03-22T06:26:59.612Z,12
2018-03-22T06:31:59.554Z,12
2018-03-22T06:36:59.557Z,18.3
2018-03-22T06:41:59.454Z,18.3
2018-03-22T06:46:59.537Z,16.6
2018-03-22T06:51:59.706Z,16.6
2018-03-22T06:56:59.674Z,37.4
2018-03-22T07:01:59.688Z,37.4
2018-03-22T07:06:59.919Z,30.8
2018-03-22T07:11:59.046Z,30.8
2018-03-22T07:16:59.098Z,26.2
2018-03-22T07:21:58.879Z,26.2
2018-03-22T07:26:59.769Z,32.4
2018-03-22T07:31:59.811Z,32.4
2018-03-22T07:36:59.830Z,25.5
2018-03-22T07:41:59.798Z,25.5
2018-03-22T07:46:59.715Z,34.8
2018-03-22T07:51:59.704Z,34.8
2018-03-22T07:56:59.645Z,32.8
2018-03-22T08:01:59.723Z,32.8
2018-03-22T08:06:59.231Z,41
2018-03-22T08:11:59.200Z,41
2018-03-22T08:16:59.277Z,34.8
2018-03-22T08:21:59.200Z,34.8
2018-03-22T08:26:59.150Z,34.5
2018-03-22T08:31:59.187Z,34.5
2018-03-22T08:36:59.275Z,43.4
2018-03-22T08:41:59.263Z,43.4
2018-03-22T08:46:59.252Z,53
2018-03-22T08:51:59.275Z,53
2018-03-22T08:56:59.241Z,54.6
2018-03-22T09:01:59.500Z,54.6
2018-03-22T09:06:59.496Z,43.3
2018-03-22T09:11:59.426Z,43.3
2018-03-22T09:16:59.417Z,64
2018-03-22T09:21:59.383Z,64
2018-03-22T09:26:59.249Z,63.4
2018-03-22T09:31:59.222Z,63.4
2018-03-22T09:36:59.185Z,65.8
2018-03-22T09:41:59.171Z,65.8
2018-03-22T09:46:59.216Z,80.3
2018-03-22T09:51:59.172Z,80.3
2018-03-22T09:56:59.194Z,86.8
2018-03-22T10:01:59.176Z,86.8
2018-03-22T10:06:59.552Z,120
2018-03-22T10:11:59.547Z,120
2018-03-22T10:16:59.507Z,128.5
2018-03-22T10:21:59.470Z,128.5
2018-03-22T10:26:59.408Z,133
2018-03-22T10:31:59.385Z,133
2018-03-22T10:36:59.440Z,163.2
2018-03-22T10:41:59.311Z,163.2
2018-03-22T10:46:59.334Z,203.5
2018-03-22T10:51:59.328Z,203.5
2018-03-22T10:56:59.340Z,150.2
2018-03-22T11:01:59.393Z,150.2
2018-03-22T11:06:59.321Z,105.2
2018-03-22T11:11:59.286Z,105.2
2018-03-22T11:16:59.323Z,98.5
2018-03-22T11:21:59.279Z,98.5
2018-03-22T11:26:59.255Z,120
2018-03-22T11:31:59.302Z,120
2018-03-22T11:36:59.321Z,121.8
2018-03-22T11:41:59.287Z,121.8
2018-03-22T11:46:59.415Z,88
2018-03-22T11:51:59.499Z,88
2018-03-22T11:56:59.398Z,86.2
2018-03-22T12:01:59.430Z,86.2
2018-03-22T12:06:59.882Z,109.2
2018-03-22T12:11:59.867Z,109.2
2018-03-22T12:16:59.813Z,102
2018-03-22T12:21:59.827Z,102
2018-03-22T12:26:59.877Z,99
2018-03-22T12:31:59.911Z,99
2018-03-22T12:37:00.079Z,113.6
2018-03-22T12:42:00.003Z,113.6
2018-03-22T12:47:00.067Z,131.4
2018-03-22T12:52:00.064Z,131.4
2018-03-22T12:57:00.029Z,176.8
2018-03-22T13:02:00.069Z,176.8
2018-03-22T13:07:00.303Z,102
2018-03-22T13:11:59.591Z,102
2018-03-22T13:16:59.732Z,96.2
2018-03-22T13:21:59.827Z,96.2
2018-03-22T13:26:59.972Z,78.5
2018-03-22T13:31:59.991Z,78.5
2018-03-22T13:37:00.191Z,103.6
2018-03-22T13:42:00.193Z,103.6
2018-03-22T13:47:00.152Z,81
2018-03-22T13:52:00.209Z,81
2018-03-22T13:56:59.820Z,111
2018-03-22T14:01:59.960Z,111
2018-03-22T14:07:00.051Z,75.3
2018-03-22T14:12:00.068Z,75.3
2018-03-22T14:17:00.126Z,71.8
2018-03-22T14:22:00.139Z,71.8
2018-03-22T14:27:00.129Z,220
2018-03-22T14:32:00.164Z,220
2018-03-22T14:37:00.288Z,151.2
2018-03-22T14:42:00.242Z,151.2
2018-03-22T14:47:00.392Z,102.2
2018-03-22T14:51:59.410Z,102.2
2018-03-22T14:56:59.405Z,111
2018-03-22T15:01:59.461Z,111
2018-03-22T15:06:59.940Z,92.4
2018-03-22T15:11:59.515Z,92.4
2018-03-22T15:16:59.672Z,107.6
2018-03-22T15:21:59.933Z,107.6
2018-03-22T15:26:59.833Z,87.2
2018-03-22T15:31:59.888Z,87.2
2018-03-22T15:36:59.922Z,86.5
2018-03-22T15:41:59.886Z,86.5
2018-03-22T15:46:59.963Z,72.2
2018-03-22T15:52:00.017Z,72.2
2018-03-22T15:57:00.098Z,62.2
2018-03-22T16:02:00.189Z,62.2
2018-03-22T16:07:00.157Z,51
2018-03-22T16:11:59.833Z,51
2018-03-22T16:16:59.938Z,44.6
2018-03-22T16:22:00.166Z,44.6
2018-03-22T16:27:00.206Z,31.4
2018-03-22T16:32:00.384Z,31.4
2018-03-22T16:37:00.393Z,31.5
2018-03-22T16:42:00.408Z,31.5
2018-03-22T16:47:00.379Z,19.2
2018-03-22T16:52:00.410Z,19.2
2018-03-22T16:57:00.351Z,15
2018-03-22T17:02:00.415Z,15
2018-03-22T17:07:00.557Z,7
2018-03-22T17:12:00.431Z,7
2018-03-22T17:17:00.450Z,3.8
2018-03-22T17:21:59.478Z,3.8
2018-03-22T17:26:59.505Z,0
2018-03-22T17:32:00.471Z,0
2018-03-22T17:37:00.480Z,0
2018-03-22T17:42:00.353Z,0
2018-03-22T17:47:00.352Z,0
2018-03-22T17:52:00.462Z,0
2018-03-22T17:57:00.394Z,0
2018-03-22T18:02:00.557Z,0
2018-03-22T18:06:59.606Z,0
2018-03-22T18:11:59.919Z,0
2018-03-22T18:16:59.923Z,0
2018-03-22T18:21:59.965Z,0
2018-03-22T18:26:59.884Z,0
2018-03-22T18:31:59.928Z,0
2018-03-22T18:36:59.920Z,0
2018-03-22T18:41:59.909Z,0
2018-03-22T18:46:59.868Z,0
2018-03-22T18:51:59.900Z,0
2018-03-22T18:56:59.889Z,0
2018-03-22T19:02:00.053Z,0
2018-03-22T19:07:00.175Z,0
2018-03-22T19:11:59.667Z,0
2018-03-22T19:17:00.647Z,0
2018-03-22T19:21:59.738Z,0
2018-03-22T19:26:59.680Z,0
2018-03-22T19:32:00.675Z,0
2018-03-22T19:37:00.640Z,0
2018-03-22T19:41:59.650Z,0
2018-03-22T19:47:00.713Z,0
2018-03-22T19:51:59.879Z,0
2018-03-22T19:56:59.944Z,0
2018-03-22T20:01:59.956Z,0
2018-03-22T20:07:00.069Z,0
2018-03-22T20:11:59.748Z,0
2018-03-22T20:17:00.741Z,0
2018-03-22T20:21:59.690Z,0
2018-03-22T20:27:00.672Z,0
2018-03-22T20:32:00.776Z,0
2018-03-22T20:36:59.962Z,0
2018-03-22T20:41:59.980Z,0
2018-03-22T20:46:59.980Z,0
2018-03-22T20:51:59.954Z,0
2018-03-22T20:56:59.959Z,0
2018-03-22T21:01:59.999Z,0
2018-03-22T21:07:00.027Z,0
2018-03-22T21:11:59.782Z,0
2018-03-22T21:17:00.685Z,0
2018-03-22T21:22:00.734Z,0
2018-03-22T21:27:00.749Z,0
2018-03-22T21:32:00.798Z,0
2018-03-22T21:36:59.825Z,0
2018-03-22T21:42:00.807Z,0
2018-03-22T21:47:00.752Z,0
2018-03-22T21:51:59.756Z,0
2018-03-22T21:57:00.714Z,0
2018-03-22T22:02:00.806Z,0
2018-03-22T22:07:00.791Z,0
2018-03-22T22:12:00.205Z,0
2018-03-22T22:17:00.115Z,0
2018-03-22T22:22:00.090Z,0
2018-03-22T22:27:00.034Z,0
2018-03-22T22:32:00.073Z,0
2018-03-22T22:37:00.167Z,0
2018-03-22T22:42:00.160Z,0
2018-03-22T22:47:00.282Z,0
2018-03-22T22:52:00.456Z,0
2018-03-22T22:57:00.449Z,0
2018-03-22T23:02:00.643Z,0
2018-03-22T23:07:00.781Z,0
2018-03-22T23:12:00.104Z,0
2018-03-22T23:17:00.018Z,0
2018-03-22T23:22:00.029Z,0
2018-03-22T23:27:00.029Z,0
2018-03-22T23:31:59.921Z,0
2018-03-22T23:37:00.917Z,0
2018-03-22T23:42:00.919Z,0
2018-03-22T23:47:00.953Z,0
2018-03-22T23:52:01.019Z,0
2018-03-22T23:57:01.026Z,0
